createdAt,value
2023-04-09T00:00:09.604Z,6.40
2023-04-09T00:05:26.673Z,5.30
2023-04-09T00:10:30.856Z,5.30
2023-04-09T00:15:39.072Z,5.90
2023-04-09T00:21:36.751Z,5.90
2023-04-09T00:26:50.546Z,7.80
2023-04-09T00:32:03.481Z,3.80
2023-04-09T00:37:07.008Z,3.70
2023-04-09T00:42:12.116Z,6.50
2023-04-09T00:47:15.868Z,5.70
2023-04-09T00:52:20.997Z,5.10
2023-04-09T00:57:29.102Z,5.60
2023-04-09T01:02:33.199Z,5.40
2023-04-09T01:07:43.807Z,4.90
2023-04-09T01:12:53.787Z,5.40
2023-04-09T01:18:01.890Z,5.10
2023-04-09T01:23:16.310Z,6.60
2023-04-09T01:28:25.522Z,4.70
2023-04-09T01:33:30.809Z,5.00
2023-04-09T01:38:37.349Z,5.80
2023-04-09T01:43:44.792Z,6.70
2023-04-09T01:48:49.584Z,5.90
2023-04-09T01:53:54.173Z,5.90
2023-04-09T01:58:58.887Z,5.40
2023-04-09T02:04:04.779Z,5.30
2023-04-09T02:09:12.243Z,6.00
2023-04-09T02:14:19.726Z,5.60
2023-04-09T02:19:41.921Z,5.20
2023-04-09T02:24:52.519Z,5.10
2023-04-09T02:29:58.457Z,5.00
2023-04-09T02:35:07.611Z,6.60
2023-04-09T02:40:12.595Z,5.00
2023-04-09T02:45:21.652Z,5.50
2023-04-09T02:50:32.266Z,5.70
2023-04-09T02:55:43.804Z,7.40
2023-04-09T03:00:51.895Z,6.10
2023-04-09T03:06:05.427Z,4.80
2023-04-09T03:11:10.326Z,5.20
2023-04-09T03:16:16.402Z,5.10
2023-04-09T03:21:20.228Z,5.00
2023-04-09T03:26:29.941Z,6.20
2023-04-09T03:31:38.799Z,5.00
2023-04-09T03:36:44.061Z,5.00
2023-04-09T03:42:20.095Z,5.10
2023-04-09T03:47:27.688Z,5.00
2023-04-09T03:52:33.134Z,5.00
2023-04-09T03:57:49.393Z,5.30
2023-04-09T04:02:58.993Z,5.00
2023-04-09T04:08:23.653Z,5.10
2023-04-09T04:13:28.382Z,5.00
2023-04-09T04:18:36.204Z,5.70
2023-04-09T04:23:43.853Z,7.60
2023-04-09T04:29:00.893Z,5.10
2023-04-09T04:34:30.892Z,5.30
2023-04-09T04:39:52.298Z,4.40
2023-04-09T04:45:04.052Z,5.00
2023-04-09T04:50:29.034Z,7.00
2023-04-09T04:55:46.207Z,5.00
2023-04-09T05:01:00.739Z,4.80
2023-04-09T05:06:10.112Z,6.10
2023-04-09T05:11:44.543Z,5.10
2023-04-09T05:16:58.054Z,5.00
2023-04-09T05:22:21.433Z,5.00
2023-04-09T05:27:28.880Z,4.90
2023-04-09T05:32:38.791Z,6.90
2023-04-09T05:37:45.998Z,7.00
2023-04-09T05:42:49.624Z,4.70
2023-04-09T05:48:04.403Z,4.90
2023-04-09T05:53:11.605Z,5.10
2023-04-09T05:58:18.837Z,5.20
2023-04-09T06:03:30.613Z,5.60
2023-04-09T06:08:36.772Z,6.20
2023-04-09T06:13:51.363Z,6.20
2023-04-09T06:18:59.378Z,5.80
2023-04-09T06:24:05.664Z,5.80
2023-04-09T06:29:10.531Z,6.10
2023-04-09T06:34:18.925Z,6.30
2023-04-09T06:39:34.703Z,6.50
2023-04-09T06:44:38.695Z,7.50
2023-04-09T06:49:51.859Z,9.60
2023-04-09T06:55:09.052Z,9.90
2023-04-09T07:00:19.468Z,9.00
2023-04-09T07:05:27.475Z,9.80
2023-04-09T07:10:32.979Z,10.80
2023-04-09T07:15:44.506Z,8.90
2023-04-09T07:20:55.408Z,11.20
2023-04-09T07:26:19.900Z,10.30
2023-04-09T07:31:35.315Z,10.60
2023-04-09T07:36:52.628Z,10.90
2023-04-09T07:42:19.464Z,11.10
2023-04-09T07:47:23.274Z,11.40
2023-04-09T07:52:27.534Z,12.00
2023-04-09T07:57:36.694Z,11.80
2023-04-09T08:02:47.458Z,11.00
2023-04-09T08:13:19.592Z,11.80
2023-04-09T08:18:23.412Z,12.30
2023-04-09T08:23:34.372Z,11.60
2023-04-09T08:28:44.208Z,13.10
2023-04-09T08:33:48.439Z,14.60
2023-04-09T08:39:02.796Z,16.50
2023-04-09T08:44:12.497Z,14.00
2023-04-09T08:49:16.627Z,14.70
2023-04-09T08:54:52.617Z,15.10
2023-04-09T09:00:08.173Z,14.90
2023-04-09T09:05:17.460Z,14.70
2023-04-09T09:10:22.308Z,15.60
2023-04-09T09:15:42.266Z,14.20
2023-04-09T09:20:56.527Z,15.60
2023-04-09T09:26:17.255Z,13.40
2023-04-09T09:31:24.568Z,12.70
2023-04-09T09:36:41.898Z,12.30
2023-04-09T09:41:51.479Z,11.80
2023-04-09T09:47:02.815Z,12.90
2023-04-09T09:52:06.626Z,13.30
2023-04-09T10:02:45.963Z,14.20
2023-04-09T10:07:52.525Z,14.40
2023-04-09T10:12:59.677Z,14.70
2023-04-09T10:18:07.226Z,15.60
2023-04-09T10:23:27.726Z,17.50
2023-04-09T10:28:34.849Z,16.60
2023-04-09T10:34:04.666Z,15.10
2023-04-09T10:39:20.559Z,17.00
2023-04-09T10:44:39.846Z,17.00
2023-04-09T10:49:51.231Z,16.50
2023-04-09T10:55:06.940Z,15.10
2023-04-09T11:00:22.765Z,15.10
2023-04-09T11:05:34.155Z,15.10
2023-04-09T11:10:44.556Z,15.20
2023-04-09T11:15:50.216Z,15.50
2023-04-09T11:21:19.392Z,16.40
2023-04-09T11:26:29.679Z,16.50
2023-04-09T11:31:46.466Z,16.00
2023-04-09T11:36:57.285Z,15.20
2023-04-09T11:42:02.157Z,15.30
2023-04-09T11:47:11.543Z,16.80
2023-04-09T11:52:37.136Z,15.50
2023-04-09T11:57:43.223Z,14.90
2023-04-09T12:03:12.863Z,16.80
2023-04-09T12:08:30.857Z,16.10
2023-04-09T12:13:40.221Z,17.60
2023-04-09T12:18:56.101Z,16.70
2023-04-09T12:24:31.866Z,17.00
2023-04-09T12:29:56.620Z,19.20
2023-04-09T12:35:12.628Z,19.10
2023-04-09T12:40:21.994Z,18.70
2023-04-09T12:45:26.011Z,18.90
2023-04-09T12:50:35.749Z,17.80
2023-04-09T12:55:42.767Z,17.60
2023-04-09T13:00:50.178Z,18.90
2023-04-09T13:05:58.377Z,17.30
2023-04-09T13:11:16.008Z,16.60
2023-04-09T13:16:27.562Z,17.20
2023-04-09T13:21:35.537Z,17.70
2023-04-09T13:26:41.729Z,19.30
2023-04-09T13:31:55.060Z,19.70
2023-04-09T13:37:01.986Z,19.80
2023-04-09T13:42:17.872Z,21.20
2023-04-09T13:47:27.864Z,19.90
2023-04-09T13:52:45.941Z,19.20
2023-04-09T13:58:02.920Z,20.50
2023-04-09T14:08:27.317Z,20.60
2023-04-09T14:13:41.174Z,21.50
2023-04-09T14:24:23.215Z,20.00
2023-04-09T14:29:33.131Z,20.40
2023-04-09T14:34:51.883Z,20.10
2023-04-09T14:40:04.323Z,20.70
2023-04-09T14:45:14.145Z,23.30
2023-04-09T14:50:21.099Z,20.90
2023-04-09T14:55:29.630Z,23.00
2023-04-09T15:00:46.300Z,22.70
2023-04-09T15:06:15.156Z,19.00
2023-04-09T15:11:20.089Z,18.00
2023-04-09T15:16:32.219Z,18.80
2023-04-09T15:21:36.551Z,17.60
2023-04-09T15:27:01.711Z,18.40
2023-04-09T15:32:19.618Z,18.50
2023-04-09T15:37:35.262Z,18.10
2023-04-09T15:42:59.928Z,19.20
2023-04-09T15:48:12.365Z,18.50
2023-04-09T15:53:27.156Z,19.80
2023-04-09T15:58:33.860Z,18.80
2023-04-09T16:03:57.749Z,17.30
2023-04-09T16:09:39.220Z,17.60
2023-04-09T16:14:46.918Z,19.20
2023-04-09T16:20:25.015Z,19.90
2023-04-09T16:25:42.882Z,20.40
2023-04-09T16:30:53.590Z,21.20
2023-04-09T16:36:04.756Z,21.10
2023-04-09T16:41:19.445Z,21.80
2023-04-09T16:46:27.677Z,19.70
2023-04-09T16:51:35.766Z,19.80
2023-04-09T16:56:41.973Z,20.10
2023-04-09T17:01:51.839Z,21.20
2023-04-09T17:07:14.536Z,17.30
2023-04-09T17:12:26.042Z,18.90
2023-04-09T17:23:12.626Z,17.10
2023-04-09T17:28:20.692Z,17.40
2023-04-09T17:33:28.609Z,16.80
2023-04-09T17:38:39.255Z,16.20
2023-04-09T17:43:45.010Z,15.60
2023-04-09T17:49:00.114Z,15.10
2023-04-09T17:54:08.319Z,13.80
2023-04-09T17:59:21.017Z,12.00
2023-04-09T18:04:41.997Z,13.60
2023-04-09T18:09:51.352Z,13.40
2023-04-09T18:15:11.053Z,13.90
2023-04-09T18:20:41.042Z,13.40
2023-04-09T18:25:49.011Z,12.50
2023-04-09T18:31:06.113Z,12.20
2023-04-09T18:36:12.380Z,12.20
2023-04-09T18:41:32.820Z,12.10
2023-04-09T18:46:37.559Z,12.00
2023-04-09T18:51:50.983Z,11.70
2023-04-09T18:57:22.957Z,12.00
2023-04-09T19:02:26.882Z,11.80
2023-04-09T19:07:36.536Z,11.70
2023-04-09T19:12:50.035Z,11.20
2023-04-09T19:17:56.663Z,11.50
2023-04-09T19:23:01.779Z,11.80
2023-04-09T19:28:21.387Z,11.30
2023-04-09T19:33:25.720Z,11.20
2023-04-09T19:38:31.212Z,11.00
2023-04-09T19:43:39.426Z,11.10
2023-04-09T19:48:48.349Z,11.10
2023-04-09T19:53:52.936Z,10.60
2023-04-09T19:58:59.567Z,10.30
2023-04-09T20:04:05.924Z,10.30
2023-04-09T20:09:15.593Z,8.00
2023-04-09T20:14:23.193Z,9.70
2023-04-09T20:19:27.004Z,11.00
2023-04-09T20:24:30.895Z,9.90
2023-04-09T20:29:47.806Z,10.00
2023-04-09T20:34:55.030Z,9.70
2023-04-09T20:40:03.976Z,9.60
2023-04-09T20:45:14.518Z,8.00
2023-04-09T20:50:19.996Z,9.30
2023-04-09T20:55:27.088Z,9.10
2023-04-09T21:00:32.442Z,8.90
2023-04-09T21:05:35.945Z,8.80
2023-04-09T21:10:51.555Z,8.90
2023-04-09T21:15:58.965Z,8.40
2023-04-09T21:21:09.594Z,8.40
2023-04-09T21:26:14.243Z,8.40
2023-04-09T21:31:28.907Z,8.30
2023-04-09T21:36:42.478Z,8.00
2023-04-09T21:41:46.212Z,7.40
2023-04-09T21:46:52.555Z,7.30
2023-04-09T21:51:56.933Z,7.20
2023-04-09T21:57:01.272Z,7.60
2023-04-09T22:02:08.152Z,8.50
2023-04-09T22:07:14.670Z,7.20
2023-04-09T22:12:17.957Z,7.20
2023-04-09T22:17:23.208Z,7.40
2023-04-09T22:22:34.194Z,7.30
2023-04-09T22:27:38.367Z,8.50
2023-04-09T22:32:45.440Z,6.90
2023-04-09T22:37:52.081Z,6.60
2023-04-09T22:42:58.272Z,6.40
2023-04-09T22:48:07.176Z,6.30
2023-04-09T22:53:19.444Z,7.40
2023-04-09T22:58:42.169Z,8.50
2023-04-09T23:03:52.165Z,6.20
2023-04-09T23:08:58.224Z,6.20
2023-04-09T23:14:01.770Z,6.40
2023-04-09T23:19:07.797Z,5.60
2023-04-09T23:24:11.828Z,5.80
2023-04-09T23:29:15.608Z,5.40
2023-04-09T23:34:21.625Z,5.50
2023-04-09T23:39:29.155Z,5.80
2023-04-09T23:44:36.001Z,5.70
2023-04-09T23:49:41.046Z,5.80
2023-04-09T23:54:51.379Z,6.10
2023-04-09T23:59:58.580Z,5.60
